Time;durP1;ratioP1;P1;durP2;ratioP2;P2;SDS_P1;SDS_P2;PMS_P1;PMS_P2;Temp;Humidity;BMP_temperature;BMP_pressure;BME280_temperature;BME280_humidity;BME280_pressure;Samples;Min_cycle;Max_cycle;Signal;HPM_P1;HPM_P2
2022/04/20 00:03:11;;;;;;;25.13;14.57;;;1.00;99.90;;;;;;8251387;28;20274;-68
2022/04/20 00:07:12;;;;;;;26.90;15.63;;;1.10;99.90;;;;;;8252291;28;20215;-69
2022/04/20 00:11:13;;;;;;;31.23;18.07;;;1.20;99.90;;;;;;8249513;28;20211;-67
2022/04/20 00:15:14;;;;;;;31.40;18.43;;;1.20;99.90;;;;;;8251857;28;20194;-67
2022/04/20 00:19:15;;;;;;;28.27;17.50;;;1.30;99.90;;;;;;8250867;28;20196;-67
2022/04/20 00:23:16;;;;;;;28.37;17.57;;;1.40;99.90;;;;;;8254810;28;20219;-67
2022/04/20 00:27:16;;;;;;;24.40;15.80;;;1.40;99.90;;;;;;8251230;28;20229;-68
2022/04/20 00:31:19;;;;;;;28.13;15.63;;;1.30;99.90;;;;;;8253129;28;20191;-68
2022/04/20 00:35:19;;;;;;;28.53;16.00;;;1.30;99.90;;;;;;8250425;28;20653;-67
2022/04/20 00:39:20;;;;;;;32.07;19.27;;;1.30;99.90;;;;;;8252996;28;20219;-67
2022/04/20 00:43:22;;;;;;;34.70;19.47;;;1.30;99.90;;;;;;8249536;28;20210;-67
2022/04/20 00:47:24;;;;;;;36.50;19.87;;;1.20;99.90;;;;;;8248926;28;20192;-67
2022/04/20 00:51:25;;;;;;;31.67;18.23;;;1.20;99.90;;;;;;8249416;28;20186;-67
2022/04/20 00:55:26;;;;;;;29.60;17.20;;;1.00;99.90;;;;;;8251269;28;20193;-67
2022/04/20 00:59:29;;;;;;;30.27;16.97;;;1.00;99.90;;;;;;8260301;28;20202;-68
2022/04/20 01:03:30;;;;;;;31.57;18.70;;;0.90;99.90;;;;;;8251280;28;20233;-67
2022/04/20 01:07:36;;;;;;;35.97;20.23;;;0.90;99.90;;;;;;8251692;28;20194;-67
2022/04/20 01:11:38;;;;;;;32.13;20.43;;;1.00;99.90;;;;;;8253291;28;20192;-67
2022/04/20 01:15:39;;;;;;;32.57;20.37;;;1.00;99.90;;;;;;8248306;28;20188;-68
2022/04/20 01:19:40;;;;;;;32.17;19.77;;;1.00;99.90;;;;;;8252421;28;20652;-67
2022/04/20 01:23:42;;;;;;;27.13;17.00;;;0.90;99.90;;;;;;8249317;28;20210;-68
2022/04/20 01:27:43;;;;;;;29.27;18.70;;;0.80;99.90;;;;;;8242720;28;20208;-67
2022/04/20 01:31:43;;;;;;;32.97;17.60;;;0.70;99.90;;;;;;8249275;28;20277;-67
2022/04/20 01:35:44;;;;;;;28.17;17.40;;;0.80;99.90;;;;;;8250374;28;20197;-67
2022/04/20 01:39:45;;;;;;;28.97;16.87;;;0.80;99.90;;;;;;8246695;28;20242;-67
2022/04/20 01:43:46;;;;;;;27.90;17.03;;;0.80;99.90;;;;;;8248724;28;20235;-68
2022/04/20 01:47:46;;;;;;;28.40;18.47;;;0.90;99.90;;;;;;8251781;28;20197;-67
2022/04/20 01:51:50;;;;;;;27.57;17.63;;;0.90;99.90;;;;;;8248929;28;20222;-68
2022/04/20 01:55:51;;;;;;;33.07;20.03;;;1.00;99.90;;;;;;8248573;28;20276;-68
2022/04/20 01:59:51;;;;;;;30.70;19.90;;;1.00;99.90;;;;;;8251425;28;20189;-68
2022/04/20 02:03:52;;;;;;;31.23;18.30;;;1.10;99.90;;;;;;8250076;28;20634;-67
2022/04/20 02:07:53;;;;;;;29.60;18.03;;;1.10;99.90;;;;;;8250089;28;20196;-68
2022/04/20 02:11:54;;;;;;;29.87;17.33;;;1.10;99.90;;;;;;8247467;28;20190;-68
2022/04/20 02:15:54;;;;;;;29.90;17.67;;;1.10;99.90;;;;;;8249968;28;20205;-67
2022/04/20 02:19:58;;;;;;;24.97;16.97;;;1.30;99.90;;;;;;8249492;28;20191;-67
2022/04/20 02:23:59;;;;;;;27.30;18.83;;;1.40;99.90;;;;;;8247662;28;20223;-68
2022/04/20 02:28:00;;;;;;;28.17;17.87;;;1.50;99.90;;;;;;8246266;28;20207;-71
2022/04/20 02:32:01;;;;;;;27.93;16.23;;;1.50;99.90;;;;;;8247989;28;20279;-67
2022/04/20 02:36:02;;;;;;;26.83;17.23;;;1.60;99.90;;;;;;8246845;28;20183;-68
2022/04/20 02:40:03;;;;;;;27.33;17.73;;;1.60;99.90;;;;;;8246073;28;20246;-67
2022/04/20 02:44:05;;;;;;;24.30;16.20;;;1.70;99.90;;;;;;8245913;28;20230;-68
2022/04/20 02:48:06;;;;;;;26.20;16.90;;;1.80;99.90;;;;;;8248811;28;20194;-67
2022/04/20 02:52:07;;;;;;;23.47;15.90;;;1.90;99.90;;;;;;8249312;28;20192;-67
2022/04/20 02:56:08;;;;;;;25.93;16.17;;;2.00;99.90;;;;;;8247782;28;20210;-67
2022/04/20 03:00:09;;;;;;;26.07;16.77;;;2.00;99.90;;;;;;8253875;28;20206;-68
2022/04/20 03:04:11;;;;;;;26.00;15.87;;;2.10;99.90;;;;;;8245914;28;20273;-67
2022/04/20 03:08:13;;;;;;;23.60;16.60;;;2.10;99.90;;;;;;8255927;28;20184;-67
2022/04/20 03:12:14;;;;;;;26.63;16.83;;;2.10;99.90;;;;;;8251829;28;20215;-68
2022/04/20 03:16:15;;;;;;;27.57;17.73;;;2.20;99.90;;;;;;8251508;28;20245;-67
2022/04/20 03:20:16;;;;;;;25.63;17.40;;;2.20;99.90;;;;;;8254566;28;20252;-67
2022/04/20 03:24:17;;;;;;;26.30;18.10;;;2.20;99.90;;;;;;8255453;28;20215;-67
2022/04/20 03:28:18;;;;;;;22.47;15.63;;;2.20;99.90;;;;;;8250685;28;20196;-68
2022/04/20 03:32:20;;;;;;;23.63;15.73;;;2.20;99.90;;;;;;8256173;28;20187;-67
2022/04/20 03:36:20;;;;;;;20.93;14.77;;;2.30;99.90;;;;;;8254023;28;20195;-67
2022/04/20 03:40:21;;;;;;;27.03;15.43;;;2.40;99.90;;;;;;8254677;28;20208;-67
2022/04/20 03:44:22;;;;;;;26.20;15.90;;;2.40;99.90;;;;;;8252654;28;20254;-67
2022/04/20 03:48:23;;;;;;;26.33;16.53;;;2.50;99.90;;;;;;8252112;28;20191;-67
2022/04/20 03:52:24;;;;;;;23.90;15.07;;;2.60;99.90;;;;;;8246929;28;20191;-67
2022/04/20 03:56:25;;;;;;;23.87;16.13;;;2.60;99.90;;;;;;8253012;28;20194;-67
2022/04/20 04:00:26;;;;;;;23.90;16.20;;;2.70;99.90;;;;;;8252305;28;20219;-67
2022/04/20 04:04:27;;;;;;;21.80;14.97;;;2.70;99.90;;;;;;8253831;28;20202;-67
2022/04/20 04:08:29;;;;;;;23.10;14.90;;;2.80;99.90;;;;;;8259723;28;20188;-67
2022/04/20 04:12:30;;;;;;;24.20;16.30;;;2.90;99.90;;;;;;8270210;28;20266;-67
2022/04/20 04:16:36;;;;;;;21.77;14.90;;;2.90;99.90;;;;;;8252232;28;20308;-68
2022/04/20 04:20:37;;;;;;;24.90;15.57;;;2.90;99.90;;;;;;8242146;28;20196;-68
2022/04/20 04:24:40;;;;;;;24.67;15.17;;;2.90;99.90;;;;;;8250325;28;20223;-67
2022/04/20 04:28:41;;;;;;;24.50;16.00;;;2.90;99.90;;;;;;8252629;28;20207;-67
2022/04/20 04:32:42;;;;;;;28.50;16.87;;;3.00;99.90;;;;;;8254871;28;20188;-68
2022/04/20 04:36:43;;;;;;;25.67;17.63;;;2.90;51.80;;;;;;8250923;28;20184;-67
2022/04/20 04:40:44;;;;;;;23.60;16.20;;;2.80;99.90;;;;;;8252342;28;20238;-67
2022/04/20 04:44:44;;;;;;;22.03;16.03;;;2.80;99.90;;;;;;8247414;28;20220;-67
2022/04/20 04:48:48;;;;;;;26.83;16.67;;;2.80;99.90;;;;;;8249528;28;20258;-67
2022/04/20 04:52:49;;;;;;;23.53;16.53;;;2.80;99.90;;;;;;8250772;28;20188;-67
2022/04/20 04:56:50;;;;;;;22.70;14.93;;;2.80;99.90;;;;;;8249744;28;20599;-67
2022/04/20 05:00:51;;;;;;;22.17;14.50;;;2.90;99.90;;;;;;8243960;28;20183;-67
2022/04/20 05:04:52;;;;;;;21.37;13.80;;;3.00;99.90;;;;;;8245977;28;20290;-67
2022/04/20 05:08:53;;;;;;;20.57;14.17;;;3.10;81.30;;;;;;8248175;28;20207;-68
2022/04/20 05:12:54;;;;;;;19.90;13.73;;;3.20;1.00;;;;;;8251113;28;20560;-68
2022/04/20 05:16:56;;;;;;;22.27;14.07;;;3.30;1.00;;;;;;8246979;28;20191;-67
2022/04/20 05:20:56;;;;;;;20.10;13.63;;;3.40;99.90;;;;;;8246135;28;20230;-68
2022/04/20 05:24:57;;;;;;;20.17;13.27;;;3.50;99.90;;;;;;8243692;28;20215;-68
2022/04/20 05:28:58;;;;;;;20.53;14.40;;;3.50;1.00;;;;;;8244904;28;20235;-68
2022/04/20 05:32:59;;;;;;;25.53;14.50;;;3.60;1.00;;;;;;8247795;28;20195;-68
2022/04/20 05:45:38;;;;;;;19.00;13.90;;;3.90;99.90;;;;;;8247374;28;20443;-68
2022/04/20 05:49:39;;;;;;;17.80;13.17;;;3.90;99.90;;;;;;8242008;28;20192;-68
2022/04/20 05:53:40;;;;;;;19.70;13.30;;;4.00;1.00;;;;;;8247884;28;20201;-68
2022/04/20 05:57:41;;;;;;;16.17;12.30;;;4.10;99.90;;;;;;8250950;28;20203;-68
2022/04/20 06:01:42;;;;;;;17.37;12.50;;;4.10;99.90;;;;;;8249072;28;20197;-68
2022/04/20 06:05:42;;;;;;;23.57;14.37;;;4.30;1.00;;;;;;8237202;28;20209;-68
2022/04/20 06:09:43;;;;;;;16.27;11.80;;;4.50;1.00;;;;;;8244085;28;20358;-68
2022/04/20 06:13:44;;;;;;;17.90;12.07;;;4.60;99.90;;;;;;8244433;28;20201;-71
2022/04/20 06:17:45;;;;;;;14.87;10.87;;;4.60;1.00;;;;;;8248895;28;20189;-69
2022/04/20 06:21:46;;;;;;;17.23;10.47;;;4.90;99.90;;;;;;8260805;28;20188;-70
2022/04/20 06:25:47;;;;;;;14.93;10.90;;;5.20;99.90;;;;;;8242033;28;20226;-70
2022/04/20 06:29:47;;;;;;;17.77;10.63;;;5.30;99.90;;;;;;8244794;28;20198;-70
2022/04/20 06:33:48;;;;;;;14.23;10.40;;;5.30;1.00;;;;;;8240186;28;20187;-69
2022/04/20 06:37:50;;;;;;;14.50;9.83;;;5.50;99.90;;;;;;8245802;28;20195;-70
2022/04/20 06:41:51;;;;;;;12.13;9.60;;;5.60;99.90;;;;;;8248279;28;20188;-70
2022/04/20 06:45:52;;;;;;;13.00;8.20;;;5.90;3.20;;;;;;8245377;28;20223;-69
2022/04/20 06:49:53;;;;;;;12.50;8.77;;;5.90;99.90;;;;;;8247609;28;20180;-69
2022/04/20 07:02:33;;;;;;;12.67;8.27;;;6.20;99.90;;;;;;8247567;28;20198;-70
2022/04/20 07:06:34;;;;;;;12.73;8.90;;;6.20;99.90;;;;;;8248396;28;20212;-68
2022/04/20 07:10:35;;;;;;;10.73;7.70;;;6.20;20.40;;;;;;8246360;28;20242;-67
2022/04/20 07:14:36;;;;;;;12.63;8.40;;;6.20;99.90;;;;;;8251869;28;20188;-64
2022/04/20 07:18:36;;;;;;;10.17;8.27;;;6.20;99.90;;;;;;8248424;28;20192;-72
2022/04/20 07:22:37;;;;;;;14.27;10.90;;;6.30;19.90;;;;;;8249998;28;20240;-65
2022/04/20 07:26:38;;;;;;;13.07;7.50;;;6.40;20.10;;;;;;8245194;28;21490;-65
2022/04/20 07:30:39;;;;;;;12.00;9.03;;;6.50;1.00;;;;;;8263825;28;20206;-65
2022/04/20 07:34:40;;;;;;;11.23;7.40;;;6.60;1.00;;;;;;8248278;28;20192;-65
2022/04/20 07:38:41;;;;;;;9.77;7.20;;;6.60;1.00;;;;;;8246885;28;20211;-65
2022/04/20 07:42:42;;;;;;;9.60;7.40;;;6.60;1.00;;;;;;8245206;28;20194;-65
2022/04/20 07:46:42;;;;;;;9.03;7.13;;;6.70;1.00;;;;;;8246984;28;20214;-65
2022/04/20 07:50:43;;;;;;;11.03;6.70;;;6.90;1.00;;;;;;8237685;28;20195;-64
2022/04/20 07:54:44;;;;;;;7.80;6.30;;;7.00;99.90;;;;;;8249951;28;20263;-64
2022/04/20 07:58:45;;;;;;;8.30;6.00;;;6.80;99.90;;;;;;8252833;28;20188;-65
2022/04/20 08:02:46;;;;;;;8.27;6.27;;;6.70;99.90;;;;;;8252506;28;20196;-64
2022/04/20 08:06:47;;;;;;;7.40;6.37;;;6.50;99.90;;;;;;8249456;28;20218;-65
2022/04/20 08:10:48;;;;;;;9.63;6.47;;;6.40;99.90;;;;;;8255936;28;20191;-64
2022/04/20 08:14:49;;;;;;;11.87;6.90;;;6.40;1.00;;;;;;8248539;28;20220;-64
2022/04/20 08:18:50;;;;;;;8.63;6.57;;;6.40;1.00;;;;;;8250792;28;20195;-65
2022/04/20 08:22:51;;;;;;;8.77;6.70;;;6.60;1.00;;;;;;8253540;28;20199;-64
2022/04/20 08:26:52;;;;;;;9.20;7.03;;;6.50;1.00;;;;;;8250611;28;20219;-65
2022/04/20 08:30:52;;;;;;;10.10;6.73;;;6.50;1.00;;;;;;8253056;28;20194;-62
2022/04/20 08:34:53;;;;;;;8.37;6.83;;;6.40;1.00;;;;;;8249240;28;20192;-64
2022/04/20 08:38:54;;;;;;;9.23;6.57;;;6.50;1.00;;;;;;8253902;28;20207;-63
2022/04/20 08:42:58;;;;;;;12.10;7.40;;;6.70;1.00;;;;;;8251125;28;20192;-63
2022/04/20 08:47:01;;;;;;;8.27;6.07;;;7.00;99.90;;;;;;8252582;28;20309;-63
2022/04/20 08:51:06;;;;;;;7.90;6.40;;;7.40;99.90;;;;;;8260861;28;20218;-63
2022/04/20 08:55:10;;;;;;;9.20;5.87;;;7.60;99.90;;;;;;8253057;28;20199;-64
2022/04/20 08:59:11;;;;;;;10.63;5.90;;;7.90;99.90;;;;;;8250647;28;20187;-63
2022/04/20 09:03:15;;;;;;;10.03;5.93;;;7.90;53.80;;;;;;8251501;28;20187;-62
2022/04/20 09:07:18;;;;;;;8.83;5.47;;;8.10;62.20;;;;;;8248969;28;20188;-61
2022/04/20 09:11:22;;;;;;;8.40;6.03;;;8.10;49.60;;;;;;8244304;28;20660;-63
2022/04/20 09:15:32;;;;;;;7.63;5.97;;;7.80;99.90;;;;;;8244700;28;20192;-63
2022/04/20 09:19:32;;;;;;;9.17;5.70;;;7.70;99.90;;;;;;8250066;28;20192;-63
2022/04/20 09:23:36;;;;;;;7.10;5.73;;;7.80;99.90;;;;;;8253125;28;20251;-64
2022/04/20 09:27:39;;;;;;;7.47;5.90;;;7.90;99.90;;;;;;8250157;28;20207;-63
2022/04/20 09:31:50;;;;;;;8.33;5.50;;;8.40;99.90;;;;;;8249187;28;20230;-63
2022/04/20 09:35:52;;;;;;;6.40;5.70;;;8.70;99.90;;;;;;8245551;28;20191;-64
2022/04/20 09:39:53;;;;;;;7.73;4.53;;;8.50;99.90;;;;;;8249076;28;20546;-65
2022/04/20 09:44:08;;;;;;;12.23;6.57;;;8.60;99.90;;;;;;8247283;28;20207;-65
2022/04/20 09:52:41;;;;;;;8.10;5.00;;;8.40;1.00;;;;;;8246054;28;20290;-64
2022/04/20 09:56:42;;;;;;;7.73;6.00;;;8.20;1.00;;;;;;8241120;28;20184;-62
2022/04/20 10:00:46;;;;;;;5.70;3.90;;;7.90;99.90;;;;;;8251358;28;20199;-63
2022/04/20 10:04:48;;;;;;;7.93;5.10;;;7.50;1.00;;;;;;8248732;28;20212;-62
2022/04/20 10:08:50;;;;;;;7.97;4.77;;;7.30;99.90;;;;;;8249203;28;20184;-63
2022/04/20 10:12:54;;;;;;;7.07;4.30;;;7.10;1.00;;;;;;8244838;28;20243;-66
2022/04/20 10:16:58;;;;;;;5.97;3.97;;;7.10;1.00;;;;;;8246161;28;20188;-65
2022/04/20 10:21:00;;;;;;;4.77;3.93;;;7.20;99.90;;;;;;8247986;28;20194;-66
2022/04/20 10:25:02;;;;;;;6.63;4.40;;;7.30;1.00;;;;;;8243149;28;20582;-64
2022/04/20 10:29:16;;;;;;;6.40;4.17;;;7.40;1.00;;;;;;8246992;28;20230;-64
2022/04/20 10:33:23;;;;;;;5.63;4.40;;;7.40;99.90;;;;;;8246009;28;20288;-65
2022/04/20 10:37:28;;;;;;;5.83;4.47;;;7.00;99.90;;;;;;8247694;28;20243;-63
2022/04/20 10:41:29;;;;;;;6.67;4.70;;;6.70;99.90;;;;;;8241386;28;20203;-64
2022/04/20 10:45:37;;;;;;;5.43;4.73;;;6.60;99.90;;;;;;8248060;28;20317;-64
2022/04/20 10:49:38;;;;;;;5.57;3.63;;;6.60;99.90;;;;;;8248580;28;20188;-62
2022/04/20 10:53:39;;;;;;;7.27;5.07;;;6.40;99.90;;;;;;8246738;28;20199;-63
2022/04/20 10:57:41;;;;;;;6.90;4.73;;;6.50;99.90;;;;;;8245797;28;20191;-67
2022/04/20 11:02:06;;;;;;;7.00;4.90;;;6.60;1.00;;;;;;8244544;28;20215;-64
2022/04/20 11:06:07;;;;;;;7.13;5.53;;;6.50;99.90;;;;;;8244416;28;20214;-62
2022/04/20 11:10:08;;;;;;;6.43;4.83;;;6.60;99.90;;;;;;8254846;28;20183;-69
2022/04/20 11:18:44;;;;;;;8.00;5.80;;;6.40;99.90;;;;;;8244156;28;20219;-63
2022/04/20 11:22:45;;;;;;;9.97;6.17;;;6.50;99.90;;;;;;8245602;28;20187;-66
2022/04/20 11:26:51;;;;;;;6.87;5.60;;;6.50;99.90;;;;;;8250591;28;20219;-63
2022/04/20 11:30:53;;;;;;;7.03;5.03;;;6.60;99.90;;;;;;8254943;28;20230;-65
2022/04/20 11:35:08;;;;;;;5.43;4.43;;;6.30;99.90;;;;;;8251226;28;20184;-65
2022/04/20 11:39:13;;;;;;;7.30;4.73;;;6.30;99.90;;;;;;8250387;28;20211;-64
2022/04/20 11:43:14;;;;;;;5.50;4.47;;;6.50;99.90;;;;;;8255628;28;20281;-66
2022/04/20 11:47:17;;;;;;;5.73;4.73;;;6.60;99.90;;;;;;8251981;28;20283;-63
2022/04/20 11:51:27;;;;;;;6.27;4.73;;;6.50;99.90;;;;;;8252533;28;20246;-64
2022/04/20 11:55:28;;;;;;;6.33;4.50;;;6.70;99.90;;;;;;8250572;28;20194;-64
2022/04/20 11:59:29;;;;;;;4.67;3.93;;;6.70;99.90;;;;;;8250881;28;20206;-66
2022/04/20 12:03:40;;;;;;;4.13;3.40;;;6.60;99.90;;;;;;8253517;28;20215;-64
2022/04/20 12:07:41;;;;;;;4.03;3.63;;;6.70;99.90;;;;;;8253990;28;20192;-64
2022/04/20 12:11:42;;;;;;;5.37;4.10;;;6.60;99.90;;;;;;8250884;28;20192;-65
2022/04/20 12:15:43;;;;;;;6.00;4.20;;;6.50;99.90;;;;;;8250319;28;20195;-64
2022/04/20 12:19:44;;;;;;;5.30;4.23;;;6.60;99.90;;;;;;8250889;28;20250;-66
2022/04/20 12:23:47;;;;;;;4.97;4.00;;;6.60;99.90;;;;;;8224484;28;20227;-63
2022/04/20 12:27:51;;;;;;;5.97;4.40;;;6.60;99.90;;;;;;8224592;28;20621;-65
2022/04/20 12:31:56;;;;;;;6.10;3.63;;;6.60;99.90;;;;;;8235623;28;20218;-65
2022/04/20 12:36:06;;;;;;;4.27;2.70;;;6.70;99.90;;;;;;8233728;28;20196;-67
2022/04/20 12:40:23;;;;;;;4.10;3.70;;;6.70;99.90;;;;;;8225178;28;20639;-65
2022/04/20 12:44:36;;;;;;;4.17;3.00;;;6.70;99.90;;;;;;8219315;28;20636;-64
2022/04/20 12:48:43;;;;;;;4.07;3.27;;;6.80;99.90;;;;;;8217664;28;20215;-64
2022/04/20 12:52:52;;;;;;;3.70;3.27;;;6.90;99.90;;;;;;8230312;28;20220;-65
2022/04/20 13:05:46;;;;;;;3.53;2.70;;;6.80;99.90;;;;;;8218724;28;20231;-64
2022/04/20 13:09:47;;;;;;;3.17;2.40;;;6.70;99.90;;;;;;8234059;28;20275;-66
2022/04/20 13:13:48;;;;;;;4.73;3.00;;;6.70;99.90;;;;;;8234176;28;20200;-65
2022/04/20 13:17:49;;;;;;;5.40;3.33;;;6.70;99.90;;;;;;8233521;28;20219;-64
2022/04/20 13:21:50;;;;;;;4.63;3.57;;;6.50;99.90;;;;;;8233456;28;20196;-63
2022/04/20 13:30:11;;;;;;;5.33;3.33;;;6.50;99.90;;;;;;8221120;28;20385;-66
2022/04/20 13:34:11;;;;;;;4.27;3.03;;;6.50;99.90;;;;;;8234113;28;20192;-64
2022/04/20 13:38:12;;;;;;;3.97;3.20;;;6.60;99.90;;;;;;8234964;28;20212;-64
2022/04/20 13:42:13;;;;;;;4.07;3.50;;;6.60;99.90;;;;;;8231383;28;20275;-64
2022/04/20 13:46:14;;;;;;;3.20;2.90;;;6.50;99.90;;;;;;8229746;28;20250;-66
2022/04/20 13:50:15;;;;;;;5.10;3.03;;;6.50;99.90;;;;;;8219529;28;20188;-63
2022/04/20 13:54:16;;;;;;;6.27;3.57;;;6.40;99.90;;;;;;8229685;28;20283;-64
2022/04/20 13:58:17;;;;;;;3.87;3.07;;;6.50;99.90;;;;;;8227482;28;20197;-63
2022/04/20 14:02:18;;;;;;;5.90;3.63;;;6.40;99.90;;;;;;8221394;28;20278;-66
2022/04/20 14:06:19;;;;;;;6.07;3.00;;;6.40;99.90;;;;;;8216899;28;20216;-64
2022/04/20 14:10:20;;;;;;;4.73;3.30;;;6.40;99.90;;;;;;8229807;28;20199;-63
2022/04/20 14:14:21;;;;;;;5.27;3.97;;;6.40;99.90;;;;;;8217188;28;20288;-64
2022/04/20 14:18:21;;;;;;;4.40;3.10;;;6.50;99.90;;;;;;8236050;28;20189;-63
2022/04/20 14:22:24;;;;;;;10.30;6.33;;;6.40;99.90;;;;;;8217352;28;20206;-63
2022/04/20 14:35:04;;;;;;;2.87;2.17;;;6.50;99.90;;;;;;8217359;28;20259;-63
2022/04/20 14:39:05;;;;;;;15.03;7.17;;;6.60;99.90;;;;;;8215276;28;20219;-64
2022/04/20 14:43:06;;;;;;;11.67;5.20;;;6.60;99.90;;;;;;8231340;28;20196;-65
2022/04/20 14:47:09;;;;;;;3.00;2.17;;;6.60;99.90;;;;;;8217418;28;20223;-64
2022/04/20 14:51:10;;;;;;;5.93;2.40;;;6.60;78.70;;;;;;8228503;28;20201;-63
2022/04/20 14:55:11;;;;;;;2.27;1.83;;;6.60;99.90;;;;;;8229994;28;20219;-63
2022/04/20 14:59:12;;;;;;;2.07;1.60;;;6.60;99.90;;;;;;8217408;28;20292;-65
2022/04/20 15:03:12;;;;;;;2.70;1.30;;;6.70;99.90;;;;;;8217789;28;20192;-64
2022/04/20 15:07:13;;;;;;;1.80;1.23;;;6.80;99.90;;;;;;8213030;28;20564;-64
2022/04/20 15:11:15;;;;;;;2.63;1.57;;;6.90;99.90;;;;;;8229702;28;20299;-64
2022/04/20 15:15:17;;;;;;;2.30;1.27;;;7.00;99.90;;;;;;8215448;28;20191;-65
2022/04/20 15:19:18;;;;;;;2.20;1.40;;;6.90;99.90;;;;;;8212428;28;20216;-67
2022/04/20 15:23:20;;;;;;;2.00;1.40;;;7.00;99.90;;;;;;8213882;28;20280;-64
2022/04/20 15:27:21;;;;;;;2.03;1.40;;;6.90;99.90;;;;;;8221293;28;20213;-65
2022/04/20 15:31:23;;;;;;;1.27;1.10;;;6.80;99.90;;;;;;8225404;28;20188;-64
2022/04/20 15:35:23;;;;;;;2.03;1.47;;;6.70;99.90;;;;;;8209918;28;20192;-63
2022/04/20 15:39:24;;;;;;;1.60;1.40;;;6.60;99.90;;;;;;8215691;28;20216;-65
2022/04/20 15:43:25;;;;;;;2.83;1.80;;;6.60;99.90;;;;;;8224346;28;20193;-63
2022/04/20 15:47:26;;;;;;;1.60;1.50;;;6.60;99.90;;;;;;8213771;28;20200;-64
2022/04/20 15:51:27;;;;;;;2.00;1.40;;;6.60;99.90;;;;;;8210178;28;20240;-63
2022/04/20 16:04:06;;;;;;;1.90;1.70;;;6.60;99.90;;;;;;8215353;28;20313;-63
2022/04/20 16:08:07;;;;;;;2.97;2.30;;;6.50;99.90;;;;;;8212728;28;20188;-62
2022/04/20 16:12:08;;;;;;;2.60;1.90;;;6.50;99.90;;;;;;8210770;28;20204;-65
2022/04/20 16:16:09;;;;;;;2.93;1.90;;;6.40;99.90;;;;;;8222938;28;20195;-63
2022/04/20 16:20:11;;;;;;;2.40;2.07;;;6.30;99.90;;;;;;8218993;28;20196;-70
2022/04/20 16:24:12;;;;;;;2.53;2.00;;;6.30;99.90;;;;;;8221861;28;20293;-70
2022/04/20 16:28:15;;;;;;;2.20;2.00;;;6.20;99.90;;;;;;8220696;28;20200;-69
2022/04/20 16:32:16;;;;;;;2.80;2.10;;;6.30;99.90;;;;;;8237739;28;20188;-69
2022/04/20 16:36:17;;;;;;;2.83;2.20;;;6.30;99.90;;;;;;8235037;28;20196;-70
2022/04/20 16:40:18;;;;;;;3.93;2.47;;;6.20;99.90;;;;;;8218489;28;20215;-71
2022/04/20 16:44:19;;;;;;;4.27;2.60;;;6.20;99.90;;;;;;8234117;28;20219;-69
2022/04/20 16:48:20;;;;;;;4.13;3.00;;;6.10;99.90;;;;;;8231571;28;20239;-68
2022/04/20 16:52:21;;;;;;;4.47;2.97;;;6.10;99.90;;;;;;8232915;28;20188;-69
2022/04/20 16:56:22;;;;;;;3.57;3.13;;;6.10;99.90;;;;;;8220791;28;20582;-69
2022/04/20 17:00:23;;;;;;;2.77;2.57;;;6.20;99.90;;;;;;8217091;28;20188;-69
2022/04/20 17:04:25;;;;;;;3.73;3.43;;;6.30;99.90;;;;;;8215247;28;20216;-69
2022/04/20 17:08:26;;;;;;;5.10;4.37;;;6.30;99.90;;;;;;8219957;28;20196;-69
2022/04/20 17:12:27;;;;;;;4.00;3.43;;;6.40;99.90;;;;;;8216638;28;20185;-69
2022/04/20 17:16:28;;;;;;;4.70;4.20;;;6.40;99.90;;;;;;8219280;28;20192;-70
2022/04/20 17:29:11;;;;;;;8.20;5.50;;;6.40;99.90;;;;;;8216072;28;20232;-70
2022/04/20 17:33:12;;;;;;;14.00;9.07;;;6.40;99.90;;;;;;8221717;28;20184;-71
2022/04/20 17:37:13;;;;;;;12.33;8.83;;;6.40;99.90;;;;;;8218184;28;20188;-71
2022/04/20 17:41:14;;;;;;;23.80;15.67;;;6.40;99.90;;;;;;8220644;28;20239;-72
2022/04/20 17:45:15;;;;;;;13.80;10.70;;;6.40;99.90;;;;;;8213127;28;20208;-72
2022/04/20 17:49:16;;;;;;;7.93;5.47;;;6.30;99.90;;;;;;8207998;28;20223;-69
2022/04/20 17:53:17;;;;;;;9.50;6.80;;;6.30;99.90;;;;;;8218203;28;20196;-70
2022/04/20 17:57:18;;;;;;;6.50;4.67;;;6.30;99.90;;;;;;8227814;28;20200;-71
2022/04/20 18:01:24;;;;;;;5.60;4.60;;;6.20;99.90;;;;;;8215427;28;20291;-71
2022/04/20 18:05:26;;;;;;;5.03;4.03;;;6.20;99.90;;;;;;8230550;28;20212;-71
2022/04/20 18:09:27;;;;;;;5.63;4.87;;;6.20;99.90;;;;;;8238987;28;20192;-71
2022/04/20 18:13:28;;;;;;;6.53;4.47;;;6.10;99.90;;;;;;8237870;28;20196;-70
2022/04/20 18:17:29;;;;;;;6.30;3.87;;;6.10;99.90;;;;;;8221022;28;20195;-71
2022/04/20 18:21:30;;;;;;;6.03;4.67;;;6.10;99.90;;;;;;8217059;28;20203;-70
2022/04/20 18:25:32;;;;;;;7.33;5.23;;;6.10;99.90;;;;;;8220573;28;20214;-71
2022/04/20 18:29:34;;;;;;;5.67;4.37;;;6.10;99.90;;;;;;8213137;28;20204;-72
2022/04/20 18:33:35;;;;;;;6.83;5.17;;;6.20;99.90;;;;;;8214876;28;20191;-71
2022/04/20 18:37:35;;;;;;;5.80;5.13;;;6.20;99.90;;;;;;8230270;28;20211;-71
2022/04/20 18:41:37;;;;;;;5.53;4.97;;;6.20;99.90;;;;;;8229433;28;20223;-70
2022/04/20 18:45:38;;;;;;;6.27;5.53;;;6.20;99.90;;;;;;8218783;28;20219;-70
2022/04/20 18:49:40;;;;;;;5.67;5.13;;;6.20;99.90;;;;;;8230384;28;20251;-69
2022/04/20 18:58:00;;;;;;;6.47;5.53;;;6.10;99.90;;;;;;8215666;28;20446;-70
2022/04/20 19:02:01;;;;;;;7.23;5.70;;;6.20;99.90;;;;;;8217033;28;20193;-71
2022/04/20 19:06:02;;;;;;;6.23;5.60;;;6.20;99.90;;;;;;8230805;28;20216;-71
2022/04/20 19:10:05;;;;;;;8.00;5.57;;;6.20;99.90;;;;;;8229254;28;20199;-71
2022/04/20 19:14:06;;;;;;;6.67;5.33;;;6.30;99.90;;;;;;8215997;28;20188;-71
2022/04/20 19:18:07;;;;;;;6.13;5.53;;;6.20;99.90;;;;;;8229560;28;20196;-71
2022/04/20 19:22:08;;;;;;;5.73;5.13;;;6.30;99.90;;;;;;8232318;28;20200;-70
2022/04/20 19:26:10;;;;;;;7.30;5.40;;;6.30;99.90;;;;;;8230593;28;20208;-70
2022/04/20 19:30:11;;;;;;;6.97;5.87;;;6.30;99.90;;;;;;8230062;28;20208;-70
2022/04/20 19:34:13;;;;;;;5.97;5.37;;;6.30;99.90;;;;;;8212342;28;20188;-71
2022/04/20 19:38:14;;;;;;;5.70;5.10;;;6.30;99.90;;;;;;8231084;28;20230;-72
2022/04/20 19:42:16;;;;;;;6.10;5.50;;;6.30;99.90;;;;;;8215491;28;20208;-72
2022/04/20 19:46:17;;;;;;;8.27;6.40;;;6.30;99.90;;;;;;8228997;28;20647;-71
2022/04/20 19:50:18;;;;;;;6.47;5.20;;;6.30;99.90;;;;;;8242916;28;20203;-71
2022/04/20 19:54:19;;;;;;;7.47;6.33;;;6.30;99.90;;;;;;8225509;28;20513;-71
2022/04/20 19:58:20;;;;;;;6.97;6.07;;;6.30;99.90;;;;;;8237545;28;20188;-71
2022/04/20 20:02:21;;;;;;;7.53;6.13;;;6.40;99.90;;;;;;8224842;28;20263;-71
2022/04/20 20:06:22;;;;;;;8.40;6.83;;;6.40;99.90;;;;;;8237091;28;20654;-69
2022/04/20 20:10:23;;;;;;;8.33;7.30;;;6.40;99.90;;;;;;8237352;28;20197;-72
2022/04/20 20:14:24;;;;;;;8.80;6.73;;;6.40;99.90;;;;;;8239785;28;20188;-72
2022/04/20 20:18:25;;;;;;;8.40;6.93;;;6.40;99.90;;;;;;8235620;28;20207;-69
2022/04/20 20:22:27;;;;;;;7.23;6.43;;;6.40;99.90;;;;;;8236636;28;20201;-70
2022/04/20 20:30:46;;;;;;;8.57;6.40;;;6.40;99.90;;;;;;8219245;28;20263;-70
2022/04/20 20:34:48;;;;;;;8.53;6.93;;;6.40;99.90;;;;;;8235601;28;20288;-71
2022/04/20 20:38:48;;;;;;;7.47;6.57;;;6.30;99.90;;;;;;8234895;28;20212;-70
2022/04/20 20:42:51;;;;;;;7.77;6.93;;;6.30;99.90;;;;;;8234342;28;20243;-71
2022/04/20 20:46:52;;;;;;;8.43;7.43;;;6.30;99.90;;;;;;8235955;28;20354;-68
2022/04/20 20:50:52;;;;;;;9.33;7.07;;;6.30;99.90;;;;;;8236882;28;20188;-69
2022/04/20 20:54:54;;;;;;;8.97;7.90;;;6.30;99.90;;;;;;8220415;28;20205;-70
2022/04/20 20:58:54;;;;;;;10.77;8.00;;;6.20;99.90;;;;;;8221201;28;20260;-71
2022/04/20 21:02:55;;;;;;;11.23;7.63;;;6.30;99.90;;;;;;8235772;28;20199;-71
2022/04/20 21:06:56;;;;;;;9.97;8.03;;;6.20;99.90;;;;;;8221130;28;20240;-70
2022/04/20 21:10:57;;;;;;;9.20;8.00;;;6.20;99.90;;;;;;8218942;28;20189;-70
2022/04/20 21:14:58;;;;;;;9.53;7.43;;;6.20;99.90;;;;;;8237114;28;20219;-71
2022/04/20 21:19:02;;;;;;;9.77;7.37;;;6.30;99.90;;;;;;8224531;28;20206;-71
2022/04/20 21:23:03;;;;;;;10.10;7.23;;;6.30;99.90;;;;;;8235259;28;20200;-71
2022/04/20 21:27:04;;;;;;;8.67;7.37;;;6.40;99.90;;;;;;8219147;28;20307;-71
2022/04/20 21:31:05;;;;;;;10.07;8.13;;;6.40;99.90;;;;;;8221560;28;20246;-71
2022/04/20 21:35:06;;;;;;;9.70;8.03;;;6.40;99.90;;;;;;8219549;28;20196;-71
2022/04/20 21:39:07;;;;;;;10.10;8.57;;;6.40;99.90;;;;;;8233075;28;20219;-71
2022/04/20 21:43:08;;;;;;;9.20;7.53;;;6.40;99.90;;;;;;8232711;28;20189;-70
2022/04/20 21:47:10;;;;;;;11.57;9.00;;;6.40;99.90;;;;;;8235182;28;20212;-71
2022/04/20 21:51:11;;;;;;;9.77;7.90;;;6.40;99.90;;;;;;8228173;28;20268;-70
2022/04/20 21:55:12;;;;;;;15.87;10.73;;;6.50;99.90;;;;;;8215332;28;20200;-71
2022/04/20 21:59:13;;;;;;;13.50;9.73;;;6.50;99.90;;;;;;8233305;28;20197;-71
2022/04/20 22:12:10;;;;;;;10.83;7.93;;;6.40;99.90;;;;;;8217739;28;20196;-70
2022/04/20 22:16:12;;;;;;;13.90;10.60;;;6.40;99.90;;;;;;8231440;28;20279;-71
2022/04/20 22:20:13;;;;;;;10.93;9.73;;;6.50;99.90;;;;;;8219101;28;20189;-70
2022/04/20 22:24:14;;;;;;;12.73;10.13;;;6.50;99.90;;;;;;8232360;28;20207;-70
2022/04/20 22:28:15;;;;;;;10.67;9.10;;;6.50;99.90;;;;;;8216858;28;20188;-71